sensor_id;sensor_type;location;lat;lon;timestamp;P1;durP1;ratioP1;P2;durP2;ratioP2
48881;SDS011;57063;51.406;-2.402;2022-09-25T00:02:07;3.35;;;1.33;;
48881;SDS011;57063;51.406;-2.402;2022-09-25T00:04:32;5.40;;;1.77;;
48881;SDS011;57063;51.406;-2.402;2022-09-25T00:06:57;3.92;;;1.42;;
48881;SDS011;57063;51.406;-2.402;2022-09-25T00:09:23;4.45;;;1.92;;
48881;SDS011;57063;51.406;-2.402;2022-09-25T00:11:48;5.50;;;2.08;;
48881;SDS011;57063;51.406;-2.402;2022-09-25T00:14:14;3.40;;;1.40;;
48881;SDS011;57063;51.406;-2.402;2022-09-25T00:16:39;5.03;;;1.60;;
48881;SDS011;57063;51.406;-2.402;2022-09-25T00:19:05;4.15;;;1.50;;
48881;SDS011;57063;51.406;-2.402;2022-09-25T00:21:49;4.95;;;1.40;;
48881;SDS011;57063;51.406;-2.402;2022-09-25T00:24:17;3.47;;;1.77;;
48881;SDS011;57063;51.406;-2.402;2022-09-25T00:26:42;8.98;;;1.65;;
48881;SDS011;57063;51.406;-2.402;2022-09-25T00:29:09;6.47;;;1.50;;
48881;SDS011;57063;51.406;-2.402;2022-09-25T00:31:39;5.60;;;2.00;;
48881;SDS011;57063;51.406;-2.402;2022-09-25T00:34:05;3.33;;;1.40;;
48881;SDS011;57063;51.406;-2.402;2022-09-25T00:36:30;6.35;;;1.45;;
48881;SDS011;57063;51.406;-2.402;2022-09-25T00:38:57;4.47;;;1.50;;
48881;SDS011;57063;51.406;-2.402;2022-09-25T00:41:23;4.78;;;1.58;;
48881;SDS011;57063;51.406;-2.402;2022-09-25T00:43:51;4.43;;;1.40;;
48881;SDS011;57063;51.406;-2.402;2022-09-25T00:46:35;8.27;;;1.70;;
48881;SDS011;57063;51.406;-2.402;2022-09-25T00:49:15;5.78;;;1.60;;
48881;SDS011;57063;51.406;-2.402;2022-09-25T00:51:45;5.20;;;1.33;;
48881;SDS011;57063;51.406;-2.402;2022-09-25T00:54:18;9.32;;;2.03;;
48881;SDS011;57063;51.406;-2.402;2022-09-25T00:56:49;2.95;;;1.52;;
48881;SDS011;57063;51.406;-2.402;2022-09-25T00:59:17;9.82;;;2.60;;
48881;SDS011;57063;51.406;-2.402;2022-09-25T01:01:45;5.55;;;1.42;;
48881;SDS011;57063;51.406;-2.402;2022-09-25T01:04:11;5.05;;;1.60;;
48881;SDS011;57063;51.406;-2.402;2022-09-25T01:06:36;7.60;;;1.50;;
48881;SDS011;57063;51.406;-2.402;2022-09-25T01:09:02;8.95;;;1.48;;
48881;SDS011;57063;51.406;-2.402;2022-09-25T01:11:28;7.38;;;1.85;;
48881;SDS011;57063;51.406;-2.402;2022-09-25T01:13:55;9.30;;;1.55;;
48881;SDS011;57063;51.406;-2.402;2022-09-25T01:16:31;5.72;;;1.40;;
48881;SDS011;57063;51.406;-2.402;2022-09-25T01:25:07;5.95;;;1.70;;
48881;SDS011;57063;51.406;-2.402;2022-09-25T01:30:44;6.68;;;1.70;;
48881;SDS011;57063;51.406;-2.402;2022-09-25T01:33:16;14.32;;;1.83;;
48881;SDS011;57063;51.406;-2.402;2022-09-25T01:35:50;3.85;;;1.77;;
48881;SDS011;57063;51.406;-2.402;2022-09-25T01:38:24;9.10;;;2.35;;
48881;SDS011;57063;51.406;-2.402;2022-09-25T01:46:01;8.98;;;2.17;;
48881;SDS011;57063;51.406;-2.402;2022-09-25T01:48:32;8.43;;;1.60;;
48881;SDS011;57063;51.406;-2.402;2022-09-25T01:51:01;6.80;;;1.38;;
48881;SDS011;57063;51.406;-2.402;2022-09-25T01:53:33;6.18;;;1.80;;
48881;SDS011;57063;51.406;-2.402;2022-09-25T01:56:04;11.40;;;1.63;;
48881;SDS011;57063;51.406;-2.402;2022-09-25T01:58:38;9.77;;;1.45;;
48881;SDS011;57063;51.406;-2.402;2022-09-25T02:01:11;7.03;;;1.48;;
48881;SDS011;57063;51.406;-2.402;2022-09-25T02:03:52;5.78;;;1.48;;
48881;SDS011;57063;51.406;-2.402;2022-09-25T02:06:27;4.75;;;1.50;;
48881;SDS011;57063;51.406;-2.402;2022-09-25T02:08:59;2.72;;;1.20;;
48881;SDS011;57063;51.406;-2.402;2022-09-25T02:11:29;2.58;;;1.33;;
48881;SDS011;57063;51.406;-2.402;2022-09-25T02:14:06;6.05;;;1.45;;
48881;SDS011;57063;51.406;-2.402;2022-09-25T02:16:38;4.13;;;1.63;;
48881;SDS011;57063;51.406;-2.402;2022-09-25T02:19:08;4.45;;;1.20;;
48881;SDS011;57063;51.406;-2.402;2022-09-25T02:21:57;3.85;;;1.23;;
48881;SDS011;57063;51.406;-2.402;2022-09-25T02:24:44;6.22;;;1.55;;
48881;SDS011;57063;51.406;-2.402;2022-09-25T02:27:14;6.55;;;1.38;;
48881;SDS011;57063;51.406;-2.402;2022-09-25T02:29:42;4.20;;;1.50;;
48881;SDS011;57063;51.406;-2.402;2022-09-25T02:32:08;4.50;;;1.40;;
48881;SDS011;57063;51.406;-2.402;2022-09-25T02:34:37;7.47;;;1.73;;
48881;SDS011;57063;51.406;-2.402;2022-09-25T02:37:08;8.73;;;2.42;;
48881;SDS011;57063;51.406;-2.402;2022-09-25T02:39:37;3.03;;;1.05;;
48881;SDS011;57063;51.406;-2.402;2022-09-25T02:42:08;4.13;;;1.38;;
48881;SDS011;57063;51.406;-2.402;2022-09-25T02:44:49;5.80;;;1.05;;
48881;SDS011;57063;51.406;-2.402;2022-09-25T02:47:58;5.22;;;1.65;;
48881;SDS011;57063;51.406;-2.402;2022-09-25T02:50:53;4.18;;;1.60;;
48881;SDS011;57063;51.406;-2.402;2022-09-25T02:56:02;5.53;;;1.30;;
48881;SDS011;57063;51.406;-2.402;2022-09-25T02:58:49;3.75;;;1.55;;
48881;SDS011;57063;51.406;-2.402;2022-09-25T03:01:19;4.40;;;1.60;;
48881;SDS011;57063;51.406;-2.402;2022-09-25T03:03:48;4.05;;;1.27;;
48881;SDS011;57063;51.406;-2.402;2022-09-25T03:06:17;5.30;;;1.60;;
48881;SDS011;57063;51.406;-2.402;2022-09-25T03:08:45;4.32;;;1.80;;
48881;SDS011;57063;51.406;-2.402;2022-09-25T03:11:17;3.97;;;1.40;;
48881;SDS011;57063;51.406;-2.402;2022-09-25T03:13:45;6.18;;;2.08;;
48881;SDS011;57063;51.406;-2.402;2022-09-25T03:19:03;5.55;;;1.45;;
48881;SDS011;57063;51.406;-2.402;2022-09-25T03:21:29;5.03;;;1.30;;
48881;SDS011;57063;51.406;-2.402;2022-09-25T03:23:54;7.20;;;1.70;;
48881;SDS011;57063;51.406;-2.402;2022-09-25T03:26:23;5.18;;;1.65;;
48881;SDS011;57063;51.406;-2.402;2022-09-25T03:28:49;5.88;;;1.30;;
48881;SDS011;57063;51.406;-2.402;2022-09-25T03:31:15;5.28;;;1.80;;
48881;SDS011;57063;51.406;-2.402;2022-09-25T03:33:42;4.20;;;1.50;;
48881;SDS011;57063;51.406;-2.402;2022-09-25T03:38:41;4.20;;;1.45;;
48881;SDS011;57063;51.406;-2.402;2022-09-25T03:41:08;6.35;;;1.65;;
48881;SDS011;57063;51.406;-2.402;2022-09-25T03:43:38;2.47;;;1.63;;
48881;SDS011;57063;51.406;-2.402;2022-09-25T03:46:06;3.75;;;1.35;;
48881;SDS011;57063;51.406;-2.402;2022-09-25T03:48:34;4.85;;;1.60;;
48881;SDS011;57063;51.406;-2.402;2022-09-25T03:51:00;3.47;;;1.45;;
48881;SDS011;57063;51.406;-2.402;2022-09-25T03:53:26;2.85;;;1.30;;
48881;SDS011;57063;51.406;-2.402;2022-09-25T03:55:57;3.70;;;1.38;;
48881;SDS011;57063;51.406;-2.402;2022-09-25T03:58:26;3.78;;;1.45;;
48881;SDS011;57063;51.406;-2.402;2022-09-25T04:00:51;5.07;;;1.40;;
48881;SDS011;57063;51.406;-2.402;2022-09-25T04:03:21;5.43;;;1.50;;
48881;SDS011;57063;51.406;-2.402;2022-09-25T04:05:47;4.63;;;1.27;;
48881;SDS011;57063;51.406;-2.402;2022-09-25T04:08:12;5.03;;;1.30;;
48881;SDS011;57063;51.406;-2.402;2022-09-25T04:10:37;4.30;;;1.50;;
48881;SDS011;57063;51.406;-2.402;2022-09-25T04:13:04;5.25;;;1.77;;
48881;SDS011;57063;51.406;-2.402;2022-09-25T04:15:31;5.30;;;1.50;;
48881;SDS011;57063;51.406;-2.402;2022-09-25T04:17:57;11.20;;;1.75;;
48881;SDS011;57063;51.406;-2.402;2022-09-25T04:20:23;10.18;;;2.33;;
48881;SDS011;57063;51.406;-2.402;2022-09-25T04:22:48;5.53;;;1.73;;
48881;SDS011;57063;51.406;-2.402;2022-09-25T04:25:13;6.25;;;1.75;;
48881;SDS011;57063;51.406;-2.402;2022-09-25T04:27:39;5.78;;;1.65;;
48881;SDS011;57063;51.406;-2.402;2022-09-25T04:30:05;9.45;;;2.65;;
48881;SDS011;57063;51.406;-2.402;2022-09-25T04:32:31;3.28;;;1.40;;
48881;SDS011;57063;51.406;-2.402;2022-09-25T04:35:15;5.07;;;1.80;;
48881;SDS011;57063;51.406;-2.402;2022-09-25T04:37:40;16.30;;;2.67;;
48881;SDS011;57063;51.406;-2.402;2022-09-25T04:40:06;6.72;;;1.73;;
48881;SDS011;57063;51.406;-2.402;2022-09-25T04:42:32;8.07;;;2.08;;
48881;SDS011;57063;51.406;-2.402;2022-09-25T04:44:57;8.52;;;2.22;;
48881;SDS011;57063;51.406;-2.402;2022-09-25T04:47:24;8.27;;;2.10;;
48881;SDS011;57063;51.406;-2.402;2022-09-25T04:49:52;5.85;;;2.08;;
48881;SDS011;57063;51.406;-2.402;2022-09-25T04:52:17;7.28;;;2.25;;
48881;SDS011;57063;51.406;-2.402;2022-09-25T04:54:44;2.80;;;1.42;;
48881;SDS011;57063;51.406;-2.402;2022-09-25T04:57:13;6.38;;;1.60;;
48881;SDS011;57063;51.406;-2.402;2022-09-25T04:59:43;5.35;;;1.83;;
48881;SDS011;57063;51.406;-2.402;2022-09-25T05:02:09;4.30;;;1.55;;
48881;SDS011;57063;51.406;-2.402;2022-09-25T05:04:34;9.60;;;2.50;;
48881;SDS011;57063;51.406;-2.402;2022-09-25T05:07:00;7.97;;;1.73;;
48881;SDS011;57063;51.406;-2.402;2022-09-25T05:09:25;7.30;;;1.58;;
48881;SDS011;57063;51.406;-2.402;2022-09-25T05:11:50;6.68;;;2.20;;
48881;SDS011;57063;51.406;-2.402;2022-09-25T05:14:15;4.22;;;1.58;;
48881;SDS011;57063;51.406;-2.402;2022-09-25T05:16:41;11.35;;;1.83;;
48881;SDS011;57063;51.406;-2.402;2022-09-25T05:19:06;6.00;;;1.60;;
48881;SDS011;57063;51.406;-2.402;2022-09-25T05:21:32;7.47;;;2.08;;
48881;SDS011;57063;51.406;-2.402;2022-09-25T05:23:57;7.47;;;1.58;;
48881;SDS011;57063;51.406;-2.402;2022-09-25T05:26:23;3.13;;;1.55;;
48881;SDS011;57063;51.406;-2.402;2022-09-25T05:28:49;5.55;;;1.38;;
48881;SDS011;57063;51.406;-2.402;2022-09-25T05:31:15;3.60;;;1.23;;
48881;SDS011;57063;51.406;-2.402;2022-09-25T05:33:41;6.20;;;1.40;;
48881;SDS011;57063;51.406;-2.402;2022-09-25T05:36:07;4.20;;;1.33;;
48881;SDS011;57063;51.406;-2.402;2022-09-25T05:38:34;4.03;;;1.40;;
48881;SDS011;57063;51.406;-2.402;2022-09-25T05:41:05;3.83;;;0.98;;
48881;SDS011;57063;51.406;-2.402;2022-09-25T05:43:33;4.65;;;1.05;;
48881;SDS011;57063;51.406;-2.402;2022-09-25T05:46:01;3.95;;;1.38;;
48881;SDS011;57063;51.406;-2.402;2022-09-25T05:48:27;4.35;;;1.10;;
48881;SDS011;57063;51.406;-2.402;2022-09-25T05:50:53;2.75;;;1.65;;
48881;SDS011;57063;51.406;-2.402;2022-09-25T05:53:19;5.95;;;2.40;;
48881;SDS011;57063;51.406;-2.402;2022-09-25T05:55:51;5.70;;;2.42;;
48881;SDS011;57063;51.406;-2.402;2022-09-25T05:58:18;6.25;;;2.70;;
48881;SDS011;57063;51.406;-2.402;2022-09-25T06:00:45;6.53;;;2.55;;
48881;SDS011;57063;51.406;-2.402;2022-09-25T06:03:11;6.25;;;4.00;;
48881;SDS011;57063;51.406;-2.402;2022-09-25T06:05:37;3.55;;;2.22;;
48881;SDS011;57063;51.406;-2.402;2022-09-25T06:08:04;3.60;;;2.03;;
48881;SDS011;57063;51.406;-2.402;2022-09-25T06:10:30;3.85;;;2.25;;
48881;SDS011;57063;51.406;-2.402;2022-09-25T06:12:56;7.05;;;3.70;;
48881;SDS011;57063;51.406;-2.402;2022-09-25T06:15:23;4.55;;;3.28;;
48881;SDS011;57063;51.406;-2.402;2022-09-25T06:17:51;4.75;;;3.00;;
48881;SDS011;57063;51.406;-2.402;2022-09-25T06:20:16;8.13;;;3.97;;
48881;SDS011;57063;51.406;-2.402;2022-09-25T06:22:42;6.50;;;3.20;;
48881;SDS011;57063;51.406;-2.402;2022-09-25T06:25:08;5.45;;;3.30;;
48881;SDS011;57063;51.406;-2.402;2022-09-25T06:27:35;5.55;;;2.78;;
48881;SDS011;57063;51.406;-2.402;2022-09-25T06:30:00;5.80;;;2.58;;
48881;SDS011;57063;51.406;-2.402;2022-09-25T06:32:26;6.32;;;3.35;;
48881;SDS011;57063;51.406;-2.402;2022-09-25T06:34:51;4.18;;;2.40;;
48881;SDS011;57063;51.406;-2.402;2022-09-25T06:37:16;5.13;;;2.80;;
48881;SDS011;57063;51.406;-2.402;2022-09-25T06:39:42;5.60;;;3.03;;
48881;SDS011;57063;51.406;-2.402;2022-09-25T06:42:07;10.13;;;3.70;;
48881;SDS011;57063;51.406;-2.402;2022-09-25T06:44:32;7.75;;;3.03;;
48881;SDS011;57063;51.406;-2.402;2022-09-25T06:46:58;5.68;;;3.00;;
48881;SDS011;57063;51.406;-2.402;2022-09-25T06:49:25;6.93;;;2.95;;
48881;SDS011;57063;51.406;-2.402;2022-09-25T06:51:51;8.50;;;3.35;;
48881;SDS011;57063;51.406;-2.402;2022-09-25T06:54:16;11.25;;;3.30;;
48881;SDS011;57063;51.406;-2.402;2022-09-25T06:56:42;5.93;;;3.30;;
48881;SDS011;57063;51.406;-2.402;2022-09-25T06:59:07;5.65;;;2.97;;
48881;SDS011;57063;51.406;-2.402;2022-09-25T07:01:33;8.32;;;3.78;;
48881;SDS011;57063;51.406;-2.402;2022-09-25T07:03:59;8.18;;;3.70;;
48881;SDS011;57063;51.406;-2.402;2022-09-25T07:06:26;6.85;;;3.13;;
48881;SDS011;57063;51.406;-2.402;2022-09-25T07:08:54;5.75;;;3.65;;
48881;SDS011;57063;51.406;-2.402;2022-09-25T07:11:21;7.38;;;4.00;;
48881;SDS011;57063;51.406;-2.402;2022-09-25T07:13:48;5.63;;;3.70;;
48881;SDS011;57063;51.406;-2.402;2022-09-25T07:16:16;8.73;;;3.28;;
48881;SDS011;57063;51.406;-2.402;2022-09-25T07:18:43;7.68;;;3.72;;
48881;SDS011;57063;51.406;-2.402;2022-09-25T07:21:10;7.57;;;3.80;;
48881;SDS011;57063;51.406;-2.402;2022-09-25T07:23:37;11.68;;;3.35;;
48881;SDS011;57063;51.406;-2.402;2022-09-25T07:26:04;7.82;;;3.92;;
48881;SDS011;57063;51.406;-2.402;2022-09-25T07:28:31;9.15;;;4.03;;
48881;SDS011;57063;51.406;-2.402;2022-09-25T07:30:56;7.72;;;3.60;;
48881;SDS011;57063;51.406;-2.402;2022-09-25T07:33:21;10.45;;;3.30;;
48881;SDS011;57063;51.406;-2.402;2022-09-25T07:35:49;7.03;;;3.75;;
48881;SDS011;57063;51.406;-2.402;2022-09-25T07:38:17;6.75;;;3.35;;
48881;SDS011;57063;51.406;-2.402;2022-09-25T07:40:43;6.35;;;3.47;;
48881;SDS011;57063;51.406;-2.402;2022-09-25T07:43:09;5.00;;;3.08;;
48881;SDS011;57063;51.406;-2.402;2022-09-25T07:45:34;6.07;;;3.28;;
48881;SDS011;57063;51.406;-2.402;2022-09-25T07:48:01;9.65;;;3.47;;
48881;SDS011;57063;51.406;-2.402;2022-09-25T07:50:28;7.03;;;3.15;;
48881;SDS011;57063;51.406;-2.402;2022-09-25T07:52:55;8.38;;;2.88;;
48881;SDS011;57063;51.406;-2.402;2022-09-25T13:17:37;1.90;;;0.40;;
48881;SDS011;57063;51.406;-2.402;2022-09-25T13:23:12;2.42;;;0.40;;
48881;SDS011;57063;51.406;-2.402;2022-09-25T13:28:21;2.30;;;0.57;;
48881;SDS011;57063;51.406;-2.402;2022-09-25T13:33:24;2.40;;;0.63;;
48881;SDS011;57063;51.406;-2.402;2022-09-25T13:36:01;2.40;;;0.80;;
48881;SDS011;57063;51.406;-2.402;2022-09-25T13:41:21;3.78;;;0.50;;
48881;SDS011;57063;51.406;-2.402;2022-09-25T13:43:46;3.58;;;0.98;;
48881;SDS011;57063;51.406;-2.402;2022-09-25T13:48:38;1.60;;;0.50;;
48881;SDS011;57063;51.406;-2.402;2022-09-25T13:56:48;1.45;;;0.50;;
48881;SDS011;57063;51.406;-2.402;2022-09-25T14:04:10;4.15;;;1.05;;
48881;SDS011;57063;51.406;-2.402;2022-09-25T14:06:43;10.48;;;3.17;;
48881;SDS011;57063;51.406;-2.402;2022-09-25T14:09:13;2.40;;;0.73;;
48881;SDS011;57063;51.406;-2.402;2022-09-25T14:14:15;4.43;;;1.02;;
48881;SDS011;57063;51.406;-2.402;2022-09-25T14:16:56;3.53;;;1.33;;
48881;SDS011;57063;51.406;-2.402;2022-09-25T14:19:30;3.67;;;1.42;;
48881;SDS011;57063;51.406;-2.402;2022-09-25T14:21:59;3.20;;;1.00;;
48881;SDS011;57063;51.406;-2.402;2022-09-25T14:24:28;4.85;;;0.90;;
48881;SDS011;57063;51.406;-2.402;2022-09-25T14:26:55;2.38;;;0.70;;
48881;SDS011;57063;51.406;-2.402;2022-09-25T14:29:23;1.85;;;0.88;;
48881;SDS011;57063;51.406;-2.402;2022-09-25T14:31:58;4.72;;;1.52;;
48881;SDS011;57063;51.406;-2.402;2022-09-25T14:34:56;4.28;;;0.90;;
48881;SDS011;57063;51.406;-2.402;2022-09-25T14:46:13;4.15;;;0.60;;
48881;SDS011;57063;51.406;-2.402;2022-09-25T14:48:45;6.97;;;1.00;;
48881;SDS011;57063;51.406;-2.402;2022-09-25T14:51:18;1.48;;;0.50;;
48881;SDS011;57063;51.406;-2.402;2022-09-25T14:53:52;3.33;;;0.60;;
48881;SDS011;57063;51.406;-2.402;2022-09-25T14:56:21;3.33;;;0.70;;
48881;SDS011;57063;51.406;-2.402;2022-09-25T14:58:49;5.45;;;0.90;;
48881;SDS011;57063;51.406;-2.402;2022-09-25T15:01:27;3.05;;;0.73;;
48881;SDS011;57063;51.406;-2.402;2022-09-25T15:03:56;1.73;;;0.60;;
48881;SDS011;57063;51.406;-2.402;2022-09-25T15:06:25;3.15;;;0.80;;
48881;SDS011;57063;51.406;-2.402;2022-09-25T15:08:53;1.88;;;0.70;;
48881;SDS011;57063;51.406;-2.402;2022-09-25T15:11:19;5.45;;;0.88;;
48881;SDS011;57063;51.406;-2.402;2022-09-25T15:13:45;6.05;;;0.70;;
48881;SDS011;57063;51.406;-2.402;2022-09-25T15:16:21;5.28;;;0.98;;
48881;SDS011;57063;51.406;-2.402;2022-09-25T15:19:12;3.28;;;0.85;;
48881;SDS011;57063;51.406;-2.402;2022-09-25T15:21:42;3.00;;;0.98;;
48881;SDS011;57063;51.406;-2.402;2022-09-25T15:24:13;3.00;;;0.85;;
48881;SDS011;57063;51.406;-2.402;2022-09-25T15:26:48;4.45;;;1.17;;
48881;SDS011;57063;51.406;-2.402;2022-09-25T15:29:17;6.63;;;1.33;;
48881;SDS011;57063;51.406;-2.402;2022-09-25T15:31:46;2.20;;;1.02;;
48881;SDS011;57063;51.406;-2.402;2022-09-25T15:34:18;1.38;;;0.65;;
48881;SDS011;57063;51.406;-2.402;2022-09-25T15:36:51;1.95;;;0.47;;
48881;SDS011;57063;51.406;-2.402;2022-09-25T15:39:24;2.75;;;0.40;;
48881;SDS011;57063;51.406;-2.402;2022-09-25T15:41:50;3.15;;;0.30;;
48881;SDS011;57063;51.406;-2.402;2022-09-25T15:44:23;1.63;;;0.40;;
48881;SDS011;57063;51.406;-2.402;2022-09-25T15:46:53;2.92;;;0.45;;
48881;SDS011;57063;51.406;-2.402;2022-09-25T15:49:53;2.53;;;0.50;;
48881;SDS011;57063;51.406;-2.402;2022-09-25T15:54:44;1.50;;;0.22;;
48881;SDS011;57063;51.406;-2.402;2022-09-25T15:57:14;2.08;;;0.70;;
48881;SDS011;57063;51.406;-2.402;2022-09-25T15:59:47;2.55;;;0.50;;
48881;SDS011;57063;51.406;-2.402;2022-09-25T16:02:35;2.83;;;0.30;;
48881;SDS011;57063;51.406;-2.402;2022-09-25T16:05:31;1.10;;;0.40;;
48881;SDS011;57063;51.406;-2.402;2022-09-25T16:10:47;2.22;;;0.60;;
48881;SDS011;57063;51.406;-2.402;2022-09-25T16:13:20;2.50;;;0.47;;
48881;SDS011;57063;51.406;-2.402;2022-09-25T16:15:49;3.53;;;0.82;;
48881;SDS011;57063;51.406;-2.402;2022-09-25T16:20:52;1.58;;;0.55;;
48881;SDS011;57063;51.406;-2.402;2022-09-25T16:23:29;4.00;;;0.80;;
48881;SDS011;57063;51.406;-2.402;2022-09-25T16:25:55;4.05;;;1.42;;
48881;SDS011;57063;51.406;-2.402;2022-09-25T16:28:25;5.50;;;0.80;;
48881;SDS011;57063;51.406;-2.402;2022-09-25T16:30:59;5.25;;;0.65;;
48881;SDS011;57063;51.406;-2.402;2022-09-25T16:33:32;3.42;;;1.00;;
48881;SDS011;57063;51.406;-2.402;2022-09-25T16:36:08;7.45;;;1.17;;
48881;SDS011;57063;51.406;-2.402;2022-09-25T16:38:39;3.40;;;1.27;;
48881;SDS011;57063;51.406;-2.402;2022-09-25T16:43:46;4.68;;;1.40;;
48881;SDS011;57063;51.406;-2.402;2022-09-25T16:46:27;3.40;;;0.90;;
48881;SDS011;57063;51.406;-2.402;2022-09-25T16:48:58;3.90;;;1.30;;
48881;SDS011;57063;51.406;-2.402;2022-09-25T16:51:25;6.38;;;1.17;;
48881;SDS011;57063;51.406;-2.402;2022-09-25T16:53:51;2.58;;;0.75;;
48881;SDS011;57063;51.406;-2.402;2022-09-25T16:56:21;6.38;;;1.30;;
48881;SDS011;57063;51.406;-2.402;2022-09-25T16:58:49;4.55;;;0.95;;
48881;SDS011;57063;51.406;-2.402;2022-09-25T17:01:15;4.82;;;0.95;;
48881;SDS011;57063;51.406;-2.402;2022-09-25T17:03:42;3.10;;;1.00;;
48881;SDS011;57063;51.406;-2.402;2022-09-25T17:06:14;3.28;;;1.13;;
48881;SDS011;57063;51.406;-2.402;2022-09-25T17:08:41;6.13;;;0.95;;
48881;SDS011;57063;51.406;-2.402;2022-09-25T17:11:06;3.97;;;1.00;;
48881;SDS011;57063;51.406;-2.402;2022-09-25T17:13:32;4.28;;;1.00;;
48881;SDS011;57063;51.406;-2.402;2022-09-25T17:15:58;5.65;;;1.30;;
48881;SDS011;57063;51.406;-2.402;2022-09-25T17:18:23;5.75;;;1.20;;
48881;SDS011;57063;51.406;-2.402;2022-09-25T17:20:50;6.18;;;1.23;;
48881;SDS011;57063;51.406;-2.402;2022-09-25T17:23:20;3.90;;;1.30;;
48881;SDS011;57063;51.406;-2.402;2022-09-25T17:25:48;5.82;;;1.45;;
48881;SDS011;57063;51.406;-2.402;2022-09-25T17:28:16;6.10;;;1.08;;
48881;SDS011;57063;51.406;-2.402;2022-09-25T17:30:42;5.28;;;1.20;;
48881;SDS011;57063;51.406;-2.402;2022-09-25T17:33:11;5.80;;;1.65;;
48881;SDS011;57063;51.406;-2.402;2022-09-25T17:35:41;5.10;;;1.27;;
48881;SDS011;57063;51.406;-2.402;2022-09-25T17:38:28;4.00;;;1.70;;
48881;SDS011;57063;51.406;-2.402;2022-09-25T17:40:54;4.53;;;1.30;;
48881;SDS011;57063;51.406;-2.402;2022-09-25T17:43:20;6.13;;;1.40;;
48881;SDS011;57063;51.406;-2.402;2022-09-25T17:45:50;7.13;;;1.73;;
48881;SDS011;57063;51.406;-2.402;2022-09-25T17:48:18;7.55;;;1.90;;
48881;SDS011;57063;51.406;-2.402;2022-09-25T17:50:52;6.18;;;1.55;;
48881;SDS011;57063;51.406;-2.402;2022-09-25T17:53:18;7.63;;;1.58;;
48881;SDS011;57063;51.406;-2.402;2022-09-25T17:55:45;3.75;;;1.40;;
48881;SDS011;57063;51.406;-2.402;2022-09-25T17:58:12;6.65;;;1.40;;
48881;SDS011;57063;51.406;-2.402;2022-09-25T18:00:38;4.53;;;1.40;;
48881;SDS011;57063;51.406;-2.402;2022-09-25T18:03:04;8.20;;;1.65;;
48881;SDS011;57063;51.406;-2.402;2022-09-25T18:05:29;3.65;;;1.13;;
48881;SDS011;57063;51.406;-2.402;2022-09-25T18:07:55;7.22;;;1.15;;
48881;SDS011;57063;51.406;-2.402;2022-09-25T18:10:22;3.42;;;0.82;;
48881;SDS011;57063;51.406;-2.402;2022-09-25T18:12:47;3.35;;;0.90;;
48881;SDS011;57063;51.406;-2.402;2022-09-25T18:15:13;3.88;;;0.90;;
48881;SDS011;57063;51.406;-2.402;2022-09-25T18:17:39;3.80;;;1.10;;
48881;SDS011;57063;51.406;-2.402;2022-09-25T18:20:05;3.58;;;1.30;;
48881;SDS011;57063;51.406;-2.402;2022-09-25T18:22:50;3.72;;;0.70;;
48881;SDS011;57063;51.406;-2.402;2022-09-25T18:25:15;6.57;;;0.98;;
48881;SDS011;57063;51.406;-2.402;2022-09-25T18:27:41;4.88;;;1.70;;
48881;SDS011;57063;51.406;-2.402;2022-09-25T18:30:10;3.20;;;1.10;;
48881;SDS011;57063;51.406;-2.402;2022-09-25T18:32:37;2.92;;;0.80;;
48881;SDS011;57063;51.406;-2.402;2022-09-25T18:35:03;4.72;;;1.13;;
48881;SDS011;57063;51.406;-2.402;2022-09-25T18:37:29;4.50;;;2.08;;
48881;SDS011;57063;51.406;-2.402;2022-09-25T18:39:55;3.85;;;1.45;;
48881;SDS011;57063;51.406;-2.402;2022-09-25T18:42:20;6.53;;;1.92;;
48881;SDS011;57063;51.406;-2.402;2022-09-25T18:44:46;3.97;;;1.48;;
48881;SDS011;57063;51.406;-2.402;2022-09-25T18:47:12;10.68;;;1.83;;
48881;SDS011;57063;51.406;-2.402;2022-09-25T18:49:37;4.70;;;1.33;;
48881;SDS011;57063;51.406;-2.402;2022-09-25T18:52:03;5.35;;;1.00;;
48881;SDS011;57063;51.406;-2.402;2022-09-25T18:54:28;4.18;;;0.98;;
48881;SDS011;57063;51.406;-2.402;2022-09-25T18:56:53;2.38;;;0.80;;
48881;SDS011;57063;51.406;-2.402;2022-09-25T18:59:19;3.25;;;0.80;;
48881;SDS011;57063;51.406;-2.402;2022-09-25T19:01:44;5.75;;;1.10;;
48881;SDS011;57063;51.406;-2.402;2022-09-25T19:04:12;3.90;;;1.13;;
48881;SDS011;57063;51.406;-2.402;2022-09-25T19:06:39;6.25;;;0.85;;
48881;SDS011;57063;51.406;-2.402;2022-09-25T19:09:05;3.42;;;1.10;;
48881;SDS011;57063;51.406;-2.402;2022-09-25T19:11:30;5.40;;;1.05;;
48881;SDS011;57063;51.406;-2.402;2022-09-25T19:13:56;4.35;;;1.05;;
48881;SDS011;57063;51.406;-2.402;2022-09-25T19:16:21;4.20;;;1.02;;
48881;SDS011;57063;51.406;-2.402;2022-09-25T19:18:47;2.03;;;0.75;;
48881;SDS011;57063;51.406;-2.402;2022-09-25T19:21:14;2.63;;;1.17;;
48881;SDS011;57063;51.406;-2.402;2022-09-25T19:23:41;8.82;;;1.38;;
48881;SDS011;57063;51.406;-2.402;2022-09-25T19:26:09;7.13;;;1.10;;
48881;SDS011;57063;51.406;-2.402;2022-09-25T19:28:37;3.88;;;1.20;;
48881;SDS011;57063;51.406;-2.402;2022-09-25T19:31:04;5.38;;;1.25;;
48881;SDS011;57063;51.406;-2.402;2022-09-25T19:33:35;3.25;;;0.95;;
48881;SDS011;57063;51.406;-2.402;2022-09-25T19:36:05;4.40;;;1.15;;
48881;SDS011;57063;51.406;-2.402;2022-09-25T19:38:36;4.18;;;1.50;;
48881;SDS011;57063;51.406;-2.402;2022-09-25T19:41:02;4.32;;;1.23;;
48881;SDS011;57063;51.406;-2.402;2022-09-25T19:43:33;2.97;;;1.20;;
48881;SDS011;57063;51.406;-2.402;2022-09-25T19:45:59;4.55;;;1.20;;
48881;SDS011;57063;51.406;-2.402;2022-09-25T19:48:24;5.97;;;1.20;;
48881;SDS011;57063;51.406;-2.402;2022-09-25T19:50:49;5.70;;;1.63;;
48881;SDS011;57063;51.406;-2.402;2022-09-25T19:53:15;4.55;;;1.65;;
48881;SDS011;57063;51.406;-2.402;2022-09-25T19:55:42;3.60;;;1.23;;
48881;SDS011;57063;51.406;-2.402;2022-09-25T19:58:09;6.10;;;1.52;;
48881;SDS011;57063;51.406;-2.402;2022-09-25T20:00:38;4.07;;;1.38;;
48881;SDS011;57063;51.406;-2.402;2022-09-25T20:03:08;4.50;;;1.40;;
48881;SDS011;57063;51.406;-2.402;2022-09-25T20:05:36;5.18;;;1.42;;
48881;SDS011;57063;51.406;-2.402;2022-09-25T20:08:04;5.10;;;1.38;;
48881;SDS011;57063;51.406;-2.402;2022-09-25T20:10:31;3.78;;;1.95;;
48881;SDS011;57063;51.406;-2.402;2022-09-25T20:13:04;3.72;;;1.55;;
48881;SDS011;57063;51.406;-2.402;2022-09-25T20:15:30;5.72;;;1.60;;
48881;SDS011;57063;51.406;-2.402;2022-09-25T20:17:58;2.67;;;1.20;;
48881;SDS011;57063;51.406;-2.402;2022-09-25T20:20:27;5.30;;;1.70;;
48881;SDS011;57063;51.406;-2.402;2022-09-25T20:22:56;8.77;;;1.75;;
48881;SDS011;57063;51.406;-2.402;2022-09-25T20:25:23;5.05;;;1.48;;
48881;SDS011;57063;51.406;-2.402;2022-09-25T20:27:51;4.93;;;1.60;;
48881;SDS011;57063;51.406;-2.402;2022-09-25T20:30:17;5.70;;;1.50;;
48881;SDS011;57063;51.406;-2.402;2022-09-25T20:32:43;4.60;;;1.20;;
48881;SDS011;57063;51.406;-2.402;2022-09-25T20:35:09;5.53;;;1.52;;
48881;SDS011;57063;51.406;-2.402;2022-09-25T20:37:35;5.05;;;1.67;;
48881;SDS011;57063;51.406;-2.402;2022-09-25T20:40:02;3.28;;;1.20;;
48881;SDS011;57063;51.406;-2.402;2022-09-25T20:42:27;3.35;;;1.50;;
48881;SDS011;57063;51.406;-2.402;2022-09-25T20:44:55;4.22;;;1.20;;
48881;SDS011;57063;51.406;-2.402;2022-09-25T20:47:21;7.03;;;1.40;;
48881;SDS011;57063;51.406;-2.402;2022-09-25T20:49:46;6.72;;;1.63;;
48881;SDS011;57063;51.406;-2.402;2022-09-25T20:52:13;4.43;;;1.30;;
48881;SDS011;57063;51.406;-2.402;2022-09-25T20:54:40;7.22;;;1.67;;
48881;SDS011;57063;51.406;-2.402;2022-09-25T20:57:08;5.32;;;1.80;;
48881;SDS011;57063;51.406;-2.402;2022-09-25T20:59:34;6.18;;;1.95;;
48881;SDS011;57063;51.406;-2.402;2022-09-25T21:02:02;6.38;;;1.73;;
48881;SDS011;57063;51.406;-2.402;2022-09-25T21:04:29;4.07;;;1.60;;
48881;SDS011;57063;51.406;-2.402;2022-09-25T21:06:55;8.52;;;1.90;;
48881;SDS011;57063;51.406;-2.402;2022-09-25T21:09:22;9.27;;;1.80;;
48881;SDS011;57063;51.406;-2.402;2022-09-25T21:11:49;6.90;;;1.90;;
48881;SDS011;57063;51.406;-2.402;2022-09-25T21:14:20;5.75;;;2.38;;